This is the latest recevied weather packets stored in our database for station/object URMT. If no packets are shown the sender has not sent any weather packets the latest 1 day(s).
| Time | Temp. | Humidity | Pressure | Rain* | Wind** | Luminosity | Snow |
|---|---|---|---|---|---|---|---|
| 1778059846 | 12.78° C | 58% | 1016 hPa | - | 4.02 m/s, 270° | - | - |
| 1778058044 | 13.89° C | 58% | 1016 hPa | - | 4.02 m/s, 280° | - | - |
| 1778056245 | 12.78° C | 62% | 1016 hPa | - | 4.02 m/s, 290° | - | - |
| 1778054444 | 12.78° C | 62% | 1016 hPa | - | 4.02 m/s, 290° | - | - |
| 1778052645 | 12.78° C | 58% | 1016 hPa | - | 4.02 m/s, 330° | - | - |
| 1778050845 | 12.78° C | 58% | 1016 hPa | - | 4.02 m/s, 280° | - | - |
| 1778049048 | 11.67° C | 71% | 1015 hPa | - | 4.02 m/s, 240° | - | - |
| 1778047246 | 11.67° C | 71% | 1015 hPa | - | 3.13 m/s, 230° | - | - |
| 1778045445 | 10.56° C | 76% | 1015 hPa | - | 3.13 m/s, 230° | - | - |
| 1778043645 | 10.56° C | 76% | 1015 hPa | - | 3.13 m/s, 230° | - | - |
| 1778041846 | 10° C | 81% | 1015 hPa | - | 3.13 m/s, 230° | - | - |
| 1778040045 | 8.89° C | 87% | 1015 hPa | - | 1.79 m/s, 260° | - | - |
| 1778038246 | 8.89° C | 87% | 1015 hPa | - | 1.79 m/s, 270° | - | - |
| 1778036445 | 8.89° C | 81% | 1014 hPa | - | 1.79 m/s, 300° | - | - |
| 1778034648 | 8.89° C | 81% | 1014 hPa | - | 0.89 m/s, 360° | - | - |
| 1778032845 | 7.78° C | 93% | 1014 hPa | - | 1.79 m/s, 270° | - | - |
| 1778029247 | 8.89° C | 93% | 1013 hPa | - | 0 m/s | - | - |
| 1778027446 | 8.89° C | 87% | 1013 hPa | - | 0.89 m/s, 320° | - | - |
| 1778025645 | 7.78° C | 93% | 1013 hPa | - | 1.79 m/s, 310° | - | - |
| 1778022045 | 7.78° C | 93% | 1013 hPa | - | 0 m/s | - | - |
| 1778020246 | 7.78° C | 87% | 1014 hPa | - | 0.89 m/s, 240° | - | - |
| 1778018447 | 7.78° C | 93% | 1014 hPa | - | 1.79 m/s, 230° | - | - |
| 1778014846 | 6.67° C | 10% | - | - | 1.79 m/s, 240° | - | - |
| 1778013046 | 7.78° C | 93% | 1014 hPa | - | 0 m/s | - | - |
| 1778011247 | 6.67° C | 10% | - | - | 0.89 m/s, 170° | - | - |
* Rain since midnight (hover to see other rain measurements)
** Current wind speed in m/s (hover to see current wind gust speed)